Time;durP1;ratioP1;P1;durP2;ratioP2;P2;SDS_P1;SDS_P2;PMS_P1;PMS_P2;Temp;Humidity;BMP_temperature;BMP_pressure;BME280_temperature;BME280_humidity;BME280_pressure;Samples;Min_cycle;Max_cycle;Signal;HPM_P1;HPM_P2
2022/07/16 00:03:00;;;;;;;8.05;1.30;;;;;;;;;;5007859;28;20033;-67
2022/07/16 00:05:26;;;;;;;12.15;1.33;;;;;;;;;;5008434;28;20018;-67
2022/07/16 00:07:51;;;;;;;5.40;1.15;;;;;;;;;;5008671;28;20080;-67
2022/07/16 00:10:16;;;;;;;2.67;1.35;;;;;;;;;;5010221;28;20021;-68
2022/07/16 00:12:41;;;;;;;3.33;1.43;;;;;;;;;;5009040;28;20056;-67
2022/07/16 00:15:07;;;;;;;2.67;1.30;;;;;;;;;;4995691;28;20328;-68
2022/07/16 00:17:32;;;;;;;3.45;1.30;;;;;;;;;;5007761;28;20331;-68
2022/07/16 00:19:57;;;;;;;3.63;1.23;;;;;;;;;;5003569;28;20466;-67
2022/07/16 00:22:23;;;;;;;8.25;1.60;;;;;;;;;;5007765;28;19998;-68
2022/07/16 00:24:48;;;;;;;3.72;1.10;;;;;;;;;;5010274;28;20037;-67
2022/07/16 00:27:13;;;;;;;12.87;1.33;;;;;;;;;;5007994;28;20025;-69
2022/07/16 00:29:38;;;;;;;6.07;1.27;;;;;;;;;;5007550;28;20281;-67
2022/07/16 00:32:04;;;;;;;2.55;1.40;;;;;;;;;;5005263;28;20268;-67
2022/07/16 00:34:29;;;;;;;2.92;1.33;;;;;;;;;;5009726;28;20022;-67
2022/07/16 00:36:54;;;;;;;3.50;1.40;;;;;;;;;;5008135;28;20029;-67
2022/07/16 00:39:19;;;;;;;5.33;1.47;;;;;;;;;;5009350;28;20694;-67
2022/07/16 00:41:46;;;;;;;2.87;1.00;;;;;;;;;;5008167;28;20295;-67
2022/07/16 00:44:12;;;;;;;3.38;1.40;;;;;;;;;;5007880;28;20761;-67
2022/07/16 00:46:38;;;;;;;2.83;1.30;;;;;;;;;;5007504;28;20030;-67
2022/07/16 00:49:04;;;;;;;6.20;1.42;;;;;;;;;;5008945;28;20022;-67
2022/07/16 00:51:30;;;;;;;3.70;1.63;;;;;;;;;;5007728;28;20025;-67
2022/07/16 00:53:55;;;;;;;3.97;1.48;;;;;;;;;;4992794;28;20126;-67
2022/07/16 00:56:21;;;;;;;3.28;1.27;;;;;;;;;;5004170;28;20109;-67
2022/07/16 00:58:47;;;;;;;7.40;1.70;;;;;;;;;;5008548;28;20022;-67
2022/07/16 01:01:12;;;;;;;3.85;1.10;;;;;;;;;;5006930;28;20360;-67
2022/07/16 01:03:38;;;;;;;8.30;1.38;;;;;;;;;;5007837;28;20036;-68
2022/07/16 01:06:04;;;;;;;2.95;1.23;;;;;;;;;;5008257;28;20108;-67
2022/07/16 01:08:29;;;;;;;7.10;1.40;;;;;;;;;;5009772;28;20022;-67
2022/07/16 01:10:55;;;;;;;4.43;1.50;;;;;;;;;;5007545;28;20040;-68
2022/07/16 01:13:20;;;;;;;4.72;1.25;;;;;;;;;;5003333;28;20097;-68
2022/07/16 01:15:46;;;;;;;5.68;1.90;;;;;;;;;;5006854;28;20045;-67
2022/07/16 01:18:11;;;;;;;9.65;1.70;;;;;;;;;;5007888;28;20033;-67
2022/07/16 01:20:36;;;;;;;4.30;1.60;;;;;;;;;;5005944;28;20014;-67
2022/07/16 01:23:02;;;;;;;4.80;1.70;;;;;;;;;;5008286;28;20291;-67
2022/07/16 01:25:27;;;;;;;3.38;1.65;;;;;;;;;;5008556;28;20368;-67
2022/07/16 01:27:52;;;;;;;5.03;1.60;;;;;;;;;;5010622;28;20071;-68
2022/07/16 01:30:17;;;;;;;8.93;2.33;;;;;;;;;;5010245;28;20449;-67
2022/07/16 01:32:42;;;;;;;7.73;2.13;;;;;;;;;;5011781;28;20284;-67
2022/07/16 01:35:08;;;;;;;7.07;1.40;;;;;;;;;;5013133;28;20359;-67
2022/07/16 01:37:33;;;;;;;7.30;1.63;;;;;;;;;;5011246;28;20373;-68
2022/07/16 01:39:58;;;;;;;4.17;1.90;;;;;;;;;;5012274;28;20429;-67
2022/07/16 01:42:23;;;;;;;4.37;1.63;;;;;;;;;;5010454;28;20273;-68
2022/07/16 01:44:49;;;;;;;2.72;1.30;;;;;;;;;;5010000;28;20284;-67
2022/07/16 01:47:14;;;;;;;5.97;1.57;;;;;;;;;;5011960;28;20120;-67
2022/07/16 01:49:39;;;;;;;6.63;1.33;;;;;;;;;;5012366;28;20272;-68
2022/07/16 01:52:09;;;;;;;10.82;1.75;;;;;;;;;;5009310;28;20026;-68
2022/07/16 01:54:34;;;;;;;2.17;1.50;;;;;;;;;;4999896;28;20589;-67
2022/07/16 01:57:00;;;;;;;3.92;1.40;;;;;;;;;;5011322;28;20057;-67
2022/07/16 01:59:25;;;;;;;6.47;1.58;;;;;;;;;;5009445;28;20111;-68
2022/07/16 02:01:50;;;;;;;5.00;1.92;;;;;;;;;;5011601;28;20025;-67
2022/07/16 02:04:15;;;;;;;3.80;1.77;;;;;;;;;;5012842;28;20399;-68
2022/07/16 02:06:40;;;;;;;5.07;1.83;;;;;;;;;;5010927;28;20304;-68
2022/07/16 02:09:06;;;;;;;6.50;1.90;;;;;;;;;;5011263;28;20045;-68
2022/07/16 02:11:31;;;;;;;3.83;1.63;;;;;;;;;;5010026;28;20276;-68
2022/07/16 02:13:56;;;;;;;8.43;1.73;;;;;;;;;;5011132;28;20285;-68
2022/07/16 02:16:21;;;;;;;8.33;1.80;;;;;;;;;;5009625;28;20272;-68
2022/07/16 02:18:46;;;;;;;4.22;1.90;;;;;;;;;;5013259;28;20283;-68
2022/07/16 02:21:11;;;;;;;5.00;1.83;;;;;;;;;;5009937;28;20046;-68
2022/07/16 02:23:37;;;;;;;6.28;1.80;;;;;;;;;;5012249;28;20287;-68
2022/07/16 02:26:02;;;;;;;3.37;1.70;;;;;;;;;;5011782;28;20530;-67
2022/07/16 02:28:27;;;;;;;3.83;1.60;;;;;;;;;;5009883;28;20280;-67
2022/07/16 02:30:52;;;;;;;9.10;2.03;;;;;;;;;;5010107;28;20733;-67
2022/07/16 02:33:18;;;;;;;9.77;2.10;;;;;;;;;;5011417;28;20324;-67
2022/07/16 02:35:44;;;;;;;3.80;1.70;;;;;;;;;;5009945;28;20288;-67
2022/07/16 02:38:09;;;;;;;5.82;1.83;;;;;;;;;;5009111;28;20032;-67
2022/07/16 02:40:35;;;;;;;7.70;1.55;;;;;;;;;;5010456;28;20463;-67
2022/07/16 02:43:01;;;;;;;4.97;1.52;;;;;;;;;;5008970;28;20018;-67
2022/07/16 02:45:26;;;;;;;14.52;2.15;;;;;;;;;;5010924;28;20104;-67
2022/07/16 02:47:52;;;;;;;9.00;1.88;;;;;;;;;;5011191;28;20096;-67
2022/07/16 02:50:17;;;;;;;4.97;2.58;;;;;;;;;;5010335;28;20060;-67
2022/07/16 02:52:43;;;;;;;4.35;1.63;;;;;;;;;;5011069;28;20026;-68
2022/07/16 02:55:08;;;;;;;3.50;1.95;;;;;;;;;;4994341;28;20045;-68
2022/07/16 02:57:33;;;;;;;8.48;2.35;;;;;;;;;;5009237;28;20014;-68
2022/07/16 02:59:58;;;;;;;5.57;1.67;;;;;;;;;;5011230;28;20025;-68
2022/07/16 03:02:23;;;;;;;3.83;1.90;;;;;;;;;;5012045;28;20029;-68
2022/07/16 03:04:49;;;;;;;10.90;1.87;;;;;;;;;;5002944;28;20041;-67
2022/07/16 03:07:14;;;;;;;7.90;2.25;;;;;;;;;;5010158;28;20336;-68
2022/07/16 03:09:39;;;;;;;5.55;1.85;;;;;;;;;;5010255;28;20533;-67
2022/07/16 03:12:05;;;;;;;6.90;1.83;;;;;;;;;;5007640;28;20025;-67
2022/07/16 03:14:30;;;;;;;8.93;1.90;;;;;;;;;;5010690;28;20022;-67
2022/07/16 03:16:55;;;;;;;4.65;1.70;;;;;;;;;;5010116;28;20022;-67
2022/07/16 03:19:20;;;;;;;3.87;1.77;;;;;;;;;;5010599;28;20505;-67
2022/07/16 03:21:45;;;;;;;7.50;2.07;;;;;;;;;;5009934;28;20354;-67
2022/07/16 03:24:10;;;;;;;3.55;1.80;;;;;;;;;;5008057;28;20621;-67
2022/07/16 03:26:36;;;;;;;6.10;1.90;;;;;;;;;;5008035;28;20386;-67
2022/07/16 03:29:01;;;;;;;5.83;1.87;;;;;;;;;;5010396;28;20284;-67
2022/07/16 03:31:26;;;;;;;4.50;2.07;;;;;;;;;;5021227;23;20313;-70
2022/07/16 03:33:51;;;;;;;10.13;1.95;;;;;;;;;;5009198;28;20323;-72
2022/07/16 03:36:16;;;;;;;6.63;2.20;;;;;;;;;;5009462;28;20018;-70
2022/07/16 03:38:57;;;;;;;10.30;3.33;;;;;;;;;;5010707;28;20292;-71
2022/07/16 03:41:22;;;;;;;;;;;;;;;;;;5007999;28;20026;-72
2022/07/16 03:43:47;;;;;;;5.40;1.90;;;;;;;;;;5014720;28;19909;-72
2022/07/16 03:46:13;;;;;;;9.73;2.03;;;;;;;;;;5024736;28;20422;-70
2022/07/16 03:48:39;;;;;;;4.07;1.60;;;;;;;;;;5030077;28;20287;-71
2022/07/16 03:51:04;;;;;;;4.45;1.70;;;;;;;;;;5028109;28;20030;-73
2022/07/16 03:53:29;;;;;;;7.25;2.08;;;;;;;;;;5028114;28;20032;-70
2022/07/16 03:55:54;;;;;;;8.85;2.35;;;;;;;;;;5028524;28;20358;-71
2022/07/16 03:58:19;;;;;;;4.90;2.17;;;;;;;;;;5030036;28;20033;-70
2022/07/16 04:00:45;;;;;;;8.47;1.80;;;;;;;;;;5024876;28;20308;-71
2022/07/16 04:03:10;;;;;;;9.03;2.27;;;;;;;;;;5026804;28;20707;-70
2022/07/16 04:05:35;;;;;;;6.33;2.00;;;;;;;;;;5029152;28;20288;-71
2022/07/16 04:08:00;;;;;;;6.03;1.93;;;;;;;;;;5027588;28;20356;-70
2022/07/16 04:10:25;;;;;;;4.72;1.75;;;;;;;;;;5028137;28;20822;-70
2022/07/16 04:12:51;;;;;;;6.77;2.13;;;;;;;;;;5024040;28;20355;-71
2022/07/16 04:15:16;;;;;;;5.85;1.75;;;;;;;;;;5028624;28;20287;-72
2022/07/16 04:17:41;;;;;;;3.00;1.73;;;;;;;;;;5025941;28;20033;-70
2022/07/16 04:20:06;;;;;;;7.00;2.20;;;;;;;;;;5023688;28;20356;-71
2022/07/16 04:22:32;;;;;;;4.78;2.20;;;;;;;;;;5028056;28;20283;-71
2022/07/16 04:24:57;;;;;;;6.85;1.88;;;;;;;;;;5028776;28;20044;-70
2022/07/16 04:27:22;;;;;;;11.67;2.20;;;;;;;;;;5024916;28;20017;-70
2022/07/16 04:29:47;;;;;;;7.47;2.70;;;;;;;;;;5028133;28;20851;-70
2022/07/16 04:32:12;;;;;;;5.27;1.80;;;;;;;;;;5026645;28;20366;-70
2022/07/16 04:34:38;;;;;;;7.63;2.13;;;;;;;;;;5024421;28;20625;-72
2022/07/16 04:37:03;;;;;;;6.03;1.77;;;;;;;;;;5027644;28;20264;-70
2022/07/16 04:39:28;;;;;;;2.73;1.83;;;;;;;;;;5024104;28;20029;-70
2022/07/16 04:41:53;;;;;;;6.55;1.80;;;;;;;;;;5028591;28;20636;-70
2022/07/16 04:44:18;;;;;;;11.60;1.85;;;;;;;;;;5028113;28;20036;-72
2022/07/16 04:46:44;;;;;;;11.47;3.33;;;;;;;;;;5025545;28;20466;-70
2022/07/16 04:49:09;;;;;;;7.30;1.93;;;;;;;;;;5027949;28;20286;-74
2022/07/16 04:51:34;;;;;;;4.55;2.13;;;;;;;;;;5027241;28;20363;-71
2022/07/16 04:53:59;;;;;;;4.30;2.33;;;;;;;;;;5025174;28;20367;-70
2022/07/16 04:56:24;;;;;;;5.03;1.77;;;;;;;;;;5026821;28;20288;-70
2022/07/16 04:58:49;;;;;;;6.00;2.73;;;;;;;;;;5029297;28;20030;-70
2022/07/16 05:01:15;;;;;;;7.40;2.30;;;;;;;;;;5025544;28;20276;-70
2022/07/16 05:03:40;;;;;;;7.33;2.00;;;;;;;;;;5015127;28;20867;-70
2022/07/16 05:06:05;;;;;;;4.40;1.95;;;;;;;;;;5030732;28;20283;-70
2022/07/16 05:08:30;;;;;;;4.90;1.88;;;;;;;;;;5030710;28;20021;-70
2022/07/16 05:10:55;;;;;;;7.47;2.03;;;;;;;;;;5031187;28;20107;-70
2022/07/16 05:13:21;;;;;;;3.45;1.70;;;;;;;;;;5031817;28;20053;-72
2022/07/16 05:15:46;;;;;;;16.45;2.33;;;;;;;;;;5030736;28;20395;-70
2022/07/16 05:18:11;;;;;;;11.73;2.33;;;;;;;;;;5031262;28;20485;-70
2022/07/16 05:20:36;;;;;;;3.60;1.85;;;;;;;;;;5031335;28;20280;-71
2022/07/16 05:23:02;;;;;;;4.05;1.90;;;;;;;;;;5031071;28;20432;-70
2022/07/16 05:25:27;;;;;;;7.60;2.17;;;;;;;;;;5028470;28;20029;-72
2022/07/16 05:27:52;;;;;;;5.10;2.00;;;;;;;;;;5032017;28;20021;-70
2022/07/16 05:30:17;;;;;;;6.13;2.42;;;;;;;;;;5031915;28;20056;-71
2022/07/16 05:32:43;;;;;;;5.55;2.08;;;;;;;;;;5031522;28;20029;-71
2022/07/16 05:35:10;;;;;;;5.50;2.03;;;;;;;;;;5028714;28;20079;-70
2022/07/16 05:37:35;;;;;;;4.45;2.22;;;;;;;;;;5032134;28;20381;-70
2022/07/16 05:40:00;;;;;;;8.10;2.30;;;;;;;;;;5029255;28;20500;-72
2022/07/16 05:42:26;;;;;;;7.30;2.83;;;;;;;;;;5032663;28;20308;-70
2022/07/16 05:44:51;;;;;;;6.40;2.35;;;;;;;;;;5029688;28;20017;-70
2022/07/16 05:47:16;;;;;;;5.23;1.70;;;;;;;;;;5031172;28;20029;-72
2022/07/16 05:49:41;;;;;;;7.30;2.10;;;;;;;;;;5028122;28;20277;-70
2022/07/16 05:52:06;;;;;;;6.25;2.17;;;;;;;;;;5031217;28;20771;-70
2022/07/16 05:54:32;;;;;;;6.20;2.30;;;;;;;;;;5031012;28;20108;-70
2022/07/16 05:56:57;;;;;;;6.73;2.07;;;;;;;;;;5032343;28;20014;-70
2022/07/16 05:59:22;;;;;;;8.90;3.10;;;;;;;;;;5028705;28;20287;-70
2022/07/16 06:01:47;;;;;;;6.38;2.65;;;;;;;;;;5029019;28;20040;-70
2022/07/16 06:04:12;;;;;;;6.22;2.35;;;;;;;;;;5027127;28;20448;-71
2022/07/16 06:06:37;;;;;;;4.53;2.23;;;;;;;;;;5028532;28;20366;-70
2022/07/16 06:09:03;;;;;;;12.10;2.23;;;;;;;;;;5031010;28;20342;-71
2022/07/16 06:11:28;;;;;;;10.80;2.38;;;;;;;;;;5031613;28;20276;-70
2022/07/16 06:13:53;;;;;;;9.10;2.40;;;;;;;;;;5028977;28;20025;-71
2022/07/16 06:16:19;;;;;;;9.07;2.95;;;;;;;;;;5029611;28;20280;-70
2022/07/16 06:18:44;;;;;;;7.38;2.53;;;;;;;;;;5028550;28;20013;-70
2022/07/16 06:21:09;;;;;;;9.77;2.13;;;;;;;;;;5022459;28;20524;-71
2022/07/16 06:23:35;;;;;;;10.70;2.35;;;;;;;;;;5029245;28;20072;-71
2022/07/16 06:26:00;;;;;;;6.97;2.33;;;;;;;;;;5031320;28;20446;-70
2022/07/16 06:28:25;;;;;;;5.60;2.20;;;;;;;;;;5035423;28;20331;-71
2022/07/16 06:30:50;;;;;;;6.68;2.58;;;;;;;;;;5017049;28;20489;-70
2022/07/16 06:33:16;;;;;;;6.65;2.30;;;;;;;;;;5026884;28;20045;-72
2022/07/16 06:35:41;;;;;;;9.40;2.45;;;;;;;;;;5030086;28;20109;-70
2022/07/16 06:38:06;;;;;;;6.93;2.17;;;;;;;;;;5031520;28;20026;-70
2022/07/16 06:40:31;;;;;;;7.37;2.23;;;;;;;;;;5024262;28;20275;-72
2022/07/16 06:42:56;;;;;;;12.32;2.45;;;;;;;;;;5030116;28;20260;-70
2022/07/16 06:45:22;;;;;;;5.43;2.47;;;;;;;;;;5028950;28;20022;-70
2022/07/16 06:47:47;;;;;;;7.10;2.00;;;;;;;;;;5026811;28;20033;-72
2022/07/16 06:50:13;;;;;;;8.00;2.80;;;;;;;;;;5026364;28;20136;-72
2022/07/16 06:52:38;;;;;;;14.10;2.75;;;;;;;;;;5026640;28;20283;-71
2022/07/16 06:55:04;;;;;;;9.15;3.15;;;;;;;;;;5024929;28;20048;-72
2022/07/16 06:57:29;;;;;;;7.78;2.40;;;;;;;;;;5029378;28;20025;-71
2022/07/16 06:59:54;;;;;;;10.57;2.63;;;;;;;;;;5024398;28;20522;-71
2022/07/16 07:02:19;;;;;;;4.53;2.35;;;;;;;;;;5028198;28;20292;-71
2022/07/16 07:04:45;;;;;;;10.00;3.22;;;;;;;;;;5028506;28;20029;-71
2022/07/16 07:07:10;;;;;;;11.87;3.07;;;;;;;;;;5024971;28;20033;-71
2022/07/16 07:09:35;;;;;;;10.10;3.00;;;;;;;;;;5028380;28;20345;-72
2022/07/16 07:12:00;;;;;;;9.87;3.17;;;;;;;;;;5028446;28;20470;-72
2022/07/16 07:14:25;;;;;;;5.88;3.05;;;;;;;;;;5025026;28;20398;-71
2022/07/16 07:16:51;;;;;;;12.45;3.33;;;;;;;;;;5027592;28;20025;-72
2022/07/16 07:19:16;;;;;;;14.97;3.67;;;;;;;;;;5026868;28;20695;-72
2022/07/16 07:21:41;;;;;;;10.60;3.63;;;;;;;;;;5025547;28;20350;-72
2022/07/16 07:24:06;;;;;;;7.50;3.87;;;;;;;;;;5027427;28;20343;-71
2022/07/16 07:26:31;;;;;;;12.25;4.13;;;;;;;;;;5026973;28;20617;-73
2022/07/16 07:28:57;;;;;;;10.80;3.63;;;;;;;;;;5026324;28;20469;-72
2022/07/16 07:31:22;;;;;;;11.85;5.03;;;;;;;;;;5026253;28;20296;-73
2022/07/16 07:33:47;;;;;;;8.40;3.67;;;;;;;;;;5024037;28;20028;-72
2022/07/16 07:36:12;;;;;;;12.73;4.18;;;;;;;;;;5027154;28;20326;-72
2022/07/16 07:38:38;;;;;;;14.43;5.00;;;;;;;;;;5025524;28;20021;-73
2022/07/16 07:41:03;;;;;;;9.48;4.20;;;;;;;;;;5027938;28;20032;-72
2022/07/16 07:43:28;;;;;;;8.98;4.20;;;;;;;;;;5027126;28;20020;-72
2022/07/16 07:45:53;;;;;;;11.32;5.22;;;;;;;;;;5027322;28;20587;-72
2022/07/16 07:48:19;;;;;;;11.20;5.83;;;;;;;;;;5020956;28;20030;-72
2022/07/16 07:50:44;;;;;;;13.02;6.38;;;;;;;;;;5027547;28;21017;-72
2022/07/16 07:53:09;;;;;;;12.32;5.15;;;;;;;;;;5027671;28;20025;-72
2022/07/16 07:55:34;;;;;;;12.63;4.55;;;;;;;;;;5027865;28;20022;-73
2022/07/16 07:58:00;;;;;;;8.35;4.43;;;;;;;;;;5023654;28;20576;-73
2022/07/16 08:00:25;;;;;;;11.35;4.03;;;;;;;;;;5024389;28;20028;-72
2022/07/16 08:02:50;;;;;;;9.73;3.75;;;;;;;;;;5026196;28;20029;-73
2022/07/16 08:05:16;;;;;;;8.83;4.00;;;;;;;;;;5027748;28;20025;-73
2022/07/16 08:07:42;;;;;;;10.30;4.28;;;;;;;;;;5026684;28;20506;-73
2022/07/16 08:10:08;;;;;;;10.75;3.95;;;;;;;;;;5026753;28;20633;-73
2022/07/16 08:12:33;;;;;;;7.72;4.10;;;;;;;;;;5024623;28;20332;-73
2022/07/16 08:14:58;;;;;;;8.35;3.78;;;;;;;;;;5024797;28;20460;-72
2022/07/16 08:17:23;;;;;;;9.17;3.93;;;;;;;;;;5023685;28;20526;-73
2022/07/16 08:19:49;;;;;;;14.10;3.27;;;;;;;;;;5027183;28;20032;-73
2022/07/16 08:22:14;;;;;;;3.93;3.20;;;;;;;;;;5024050;28;20452;-72
2022/07/16 08:27:23;;;;;;;8.18;4.00;;;;;;;;;;5022239;28;20597;-72
2022/07/16 08:29:48;;;;;;;7.00;4.37;;;;;;;;;;5025888;28;20116;-72
2022/07/16 08:32:13;;;;;;;11.63;5.53;;;;;;;;;;5027524;28;20037;-72
2022/07/16 08:34:39;;;;;;;11.57;5.70;;;;;;;;;;5026432;28;20425;-72
2022/07/16 08:37:07;;;;;;;8.35;4.93;;;;;;;;;;5027004;28;20272;-72
2022/07/16 08:39:32;;;;;;;13.70;5.63;;;;;;;;;;5018159;28;20083;-73
2022/07/16 08:41:57;;;;;;;8.60;4.97;;;;;;;;;;5028311;28;20441;-72
2022/07/16 08:44:23;;;;;;;9.15;4.30;;;;;;;;;;5028563;28;20027;-72
2022/07/16 08:46:48;;;;;;;7.78;5.47;;;;;;;;;;5026568;28;20498;-72
2022/07/16 08:49:13;;;;;;;11.25;5.13;;;;;;;;;;5026395;28;20032;-72
2022/07/16 08:51:39;;;;;;;11.20;5.50;;;;;;;;;;5027524;28;20033;-71
2022/07/16 08:54:06;;;;;;;8.73;5.20;;;;;;;;;;5026759;28;20314;-71
2022/07/16 08:56:33;;;;;;;11.65;5.28;;;;;;;;;;5028059;28;20424;-71
2022/07/16 08:59:00;;;;;;;7.45;5.63;;;;;;;;;;5022918;28;20013;-71
2022/07/16 09:01:29;;;;;;;10.27;5.75;;;;;;;;;;5026279;28;20693;-71
2022/07/16 09:03:54;;;;;;;6.55;5.68;;;;;;;;;;5022255;28;20018;-71
2022/07/16 09:06:19;;;;;;;8.38;4.50;;;;;;;;;;5029444;28;20569;-71
2022/07/16 09:08:45;;;;;;;6.60;4.23;;;;;;;;;;5023241;28;20028;-71
2022/07/16 09:11:18;;;;;;;4.13;2.53;;;;;;;;;;5027732;28;20017;-71
2022/07/16 09:14:01;;;;;;;6.93;3.13;;;;;;;;;;5024585;28;20034;-71
2022/07/16 09:16:28;;;;;;;5.88;2.58;;;;;;;;;;5021797;28;20064;-71
2022/07/16 09:19:05;;;;;;;5.72;2.35;;;;;;;;;;5023218;28;20043;-71
2022/07/16 09:21:30;;;;;;;6.10;2.15;;;;;;;;;;5020711;28;20021;-71
2022/07/16 09:23:56;;;;;;;9.13;1.95;;;;;;;;;;5022110;28;20022;-71
2022/07/16 09:26:23;;;;;;;8.50;1.70;;;;;;;;;;5023602;28;20104;-71
2022/07/16 09:28:49;;;;;;;1.92;1.25;;;;;;;;;;5025524;28;20025;-71
2022/07/16 09:31:31;;;;;;;3.35;1.13;;;;;;;;;;5026914;28;20021;-71
2022/07/16 09:34:03;;;;;;;2.70;1.27;;;;;;;;;;5020719;28;20139;-71
2022/07/16 09:36:29;;;;;;;1.95;0.90;;;;;;;;;;5025483;28;20061;-72
2022/07/16 09:38:55;;;;;;;1.87;1.03;;;;;;;;;;5026068;28;20049;-70
2022/07/16 09:41:21;;;;;;;2.90;1.02;;;;;;;;;;5028231;28;20367;-71
2022/07/16 09:43:46;;;;;;;2.30;1.00;;;;;;;;;;5030025;28;20052;-71
2022/07/16 09:46:16;;;;;;;2.47;0.80;;;;;;;;;;5025795;28;20022;-70
2022/07/16 09:48:42;;;;;;;1.35;0.85;;;;;;;;;;5025185;28;20033;-71
2022/07/16 09:51:26;;;;;;;3.90;0.80;;;;;;;;;;5024152;28;20032;-72
2022/07/16 09:53:52;;;;;;;2.10;0.70;;;;;;;;;;5033247;28;20028;-74
2022/07/16 09:56:19;;;;;;;3.03;1.08;;;;;;;;;;5027536;28;20397;-72
2022/07/16 09:58:45;;;;;;;3.92;0.80;;;;;;;;;;5027446;28;20032;-72
2022/07/16 10:01:11;;;;;;;2.13;0.80;;;;;;;;;;5014422;28;20474;-72
2022/07/16 10:03:36;;;;;;;2.90;0.70;;;;;;;;;;5031332;28;20048;-73
2022/07/16 10:06:01;;;;;;;1.90;0.83;;;;;;;;;;5032078;28;20272;-71
2022/07/16 10:08:26;;;;;;;1.00;0.60;;;;;;;;;;5028306;28;20490;-72
2022/07/16 10:10:52;;;;;;;3.73;0.80;;;;;;;;;;5015186;28;20027;-72
2022/07/16 10:13:23;;;;;;;4.87;1.03;;;;;;;;;;5030685;28;20272;-72
2022/07/16 10:15:48;;;;;;;4.72;0.93;;;;;;;;;;5027054;28;20280;-72
2022/07/16 10:18:30;;;;;;;2.10;1.10;;;;;;;;;;5017556;28;20088;-75
2022/07/16 10:21:05;;;;;;;7.78;1.35;;;;;;;;;;5029095;28;20461;-72
2022/07/16 10:23:30;;;;;;;1.20;0.88;;;;;;;;;;5028829;28;20478;-72
2022/07/16 10:25:59;;;;;;;7.15;1.55;;;;;;;;;;5018233;28;20060;-72
2022/07/16 10:28:39;;;;;;;1.88;0.93;;;;;;;;;;5028141;28;20432;-72
2022/07/16 10:31:22;;;;;;;4.00;1.13;;;;;;;;;;5030284;28;20047;-72
2022/07/16 10:34:08;;;;;;;4.25;1.17;;;;;;;;;;5030372;28;20051;-72
2022/07/16 10:36:43;;;;;;;2.72;1.08;;;;;;;;;;5031067;28;20108;-72
2022/07/16 10:39:12;;;;;;;2.60;0.93;;;;;;;;;;5029788;28;20128;-71
2022/07/16 10:41:46;;;;;;;5.27;1.23;;;;;;;;;;5018252;28;20029;-72
2022/07/16 10:44:12;;;;;;;2.42;1.13;;;;;;;;;;5031911;28;20175;-72
2022/07/16 10:46:50;;;;;;;4.38;1.10;;;;;;;;;;5027444;28;20021;-72
2022/07/16 10:49:15;;;;;;;2.90;1.20;;;;;;;;;;5030458;28;20108;-72
2022/07/16 10:51:54;;;;;;;2.53;0.93;;;;;;;;;;5026901;28;20104;-72
2022/07/16 10:54:20;;;;;;;4.38;1.00;;;;;;;;;;5005650;28;20489;-74
2022/07/16 10:56:45;;;;;;;3.20;1.10;;;;;;;;;;5030207;28;20026;-72
2022/07/16 10:59:14;;;;;;;1.52;0.70;;;;;;;;;;5028984;28;20023;-73
2022/07/16 11:01:41;;;;;;;41.17;1.45;;;;;;;;;;5029781;28;20032;-73
2022/07/16 11:04:07;;;;;;;6.13;1.10;;;;;;;;;;5025705;28;20174;-72
2022/07/16 11:06:32;;;;;;;4.65;1.08;;;;;;;;;;5001059;28;20022;-74
2022/07/16 11:09:01;;;;;;;3.03;1.23;;;;;;;;;;5028866;28;20023;-73
2022/07/16 11:11:33;;;;;;;4.05;1.20;;;;;;;;;;5028066;28;20033;-72
2022/07/16 11:13:59;;;;;;;5.68;1.10;;;;;;;;;;5023706;28;20025;-72
2022/07/16 11:16:25;;;;;;;2.60;0.90;;;;;;;;;;5011321;28;20026;-71
2022/07/16 11:18:50;;;;;;;2.67;0.80;;;;;;;;;;5018544;28;20363;-74
2022/07/16 11:21:15;;;;;;;5.37;0.80;;;;;;;;;;5023098;28;20068;-72
2022/07/16 11:23:55;;;;;;;8.77;0.98;;;;;;;;;;5027259;28;20023;-72
2022/07/16 11:26:21;;;;;;;10.05;1.05;;;;;;;;;;5025140;28;20092;-73
2022/07/16 11:28:51;;;;;;;4.40;1.15;;;;;;;;;;5030927;28;20034;-73
2022/07/16 11:31:22;;;;;;;7.75;1.27;;;;;;;;;;5028563;28;20021;-72
2022/07/16 11:33:47;;;;;;;3.97;1.40;;;;;;;;;;5030790;28;20040;-72
2022/07/16 11:36:13;;;;;;;9.60;1.48;;;;;;;;;;5026292;28;20025;-73
2022/07/16 11:38:38;;;;;;;3.92;1.27;;;;;;;;;;5029105;28;20022;-73
2022/07/16 11:41:04;;;;;;;3.22;1.10;;;;;;;;;;5030567;28;20025;-72
2022/07/16 11:43:29;;;;;;;6.10;1.83;;;;;;;;;;5031705;28;20053;-73
2022/07/16 11:45:54;;;;;;;3.22;1.27;;;;;;;;;;5013571;28;20021;-72
2022/07/16 11:48:20;;;;;;;7.27;1.17;;;;;;;;;;5030149;28;20064;-73
2022/07/16 11:50:45;;;;;;;5.13;1.00;;;;;;;;;;5031001;28;20291;-72
2022/07/16 11:53:11;;;;;;;5.78;1.10;;;;;;;;;;5028944;28;20371;-73
2022/07/16 11:55:44;;;;;;;3.40;1.10;;;;;;;;;;5030832;28;20036;-72
2022/07/16 11:58:10;;;;;;;3.75;1.20;;;;;;;;;;5028985;28;20053;-72
2022/07/16 12:00:43;;;;;;;12.73;1.38;;;;;;;;;;5030211;28;20021;-72
2022/07/16 12:03:09;;;;;;;3.17;1.10;;;;;;;;;;5031208;28;20458;-73
2022/07/16 12:05:34;;;;;;;10.45;1.27;;;;;;;;;;5028101;28;20025;-72
2022/07/16 12:08:02;;;;;;;1.83;0.98;;;;;;;;;;5030154;28;20028;-73
2022/07/16 12:10:27;;;;;;;2.42;0.95;;;;;;;;;;5030702;28;20386;-72
2022/07/16 12:13:09;;;;;;;5.50;1.33;;;;;;;;;;5029532;28;20028;-73
2022/07/16 12:15:55;;;;;;;2.47;1.10;;;;;;;;;;5028182;28;20057;-72
2022/07/16 12:18:20;;;;;;;3.20;0.80;;;;;;;;;;5030039;28;20037;-72
2022/07/16 12:20:45;;;;;;;4.75;1.23;;;;;;;;;;5029484;28;20021;-72
2022/07/16 12:23:11;;;;;;;4.82;1.08;;;;;;;;;;5030786;28;20028;-73
2022/07/16 12:25:37;;;;;;;3.28;1.13;;;;;;;;;;5029675;28;20013;-72
2022/07/16 12:28:07;;;;;;;3.83;1.30;;;;;;;;;;5030257;28;20098;-72
2022/07/16 12:30:32;;;;;;;;;;;;;;;;;;5031388;28;20025;-74
2022/07/16 12:32:59;;;;;;;3.47;1.08;;;;;;;;;;5030164;28;19920;-72
2022/07/16 12:35:34;;;;;;;5.60;1.20;;;;;;;;;;5027486;28;20394;-72
2022/07/16 12:38:00;;;;;;;4.28;1.35;;;;;;;;;;5027465;28;20021;-72
2022/07/16 12:40:25;;;;;;;8.20;1.98;;;;;;;;;;5027228;28;20109;-74
2022/07/16 12:42:50;;;;;;;4.40;1.37;;;;;;;;;;5030035;28;20041;-74
2022/07/16 12:45:15;;;;;;;8.97;1.20;;;;;;;;;;5030648;28;20037;-73
2022/07/16 12:47:40;;;;;;;5.68;1.20;;;;;;;;;;5029449;28;20108;-74
2022/07/16 12:50:06;;;;;;;6.60;0.73;;;;;;;;;;5029713;28;20063;-72
2022/07/16 12:52:31;;;;;;;3.20;0.80;;;;;;;;;;5030143;28;20550;-73
2022/07/16 13:00:24;;;;;;;3.45;0.90;;;;;;;;;;5024196;28;20108;-72
2022/07/16 13:02:50;;;;;;;8.03;1.10;;;;;;;;;;5025172;28;20466;-72
2022/07/16 13:05:15;;;;;;;6.55;1.23;;;;;;;;;;5027866;28;20646;-71
2022/07/16 13:07:40;;;;;;;5.87;1.07;;;;;;;;;;5012805;28;20013;-71
2022/07/16 13:10:06;;;;;;;6.97;1.10;;;;;;;;;;5028961;28;20271;-71
2022/07/16 13:12:31;;;;;;;4.65;1.10;;;;;;;;;;5029459;28;20033;-71
2022/07/16 13:14:56;;;;;;;2.50;0.93;;;;;;;;;;5029071;28;20482;-73
2022/07/16 13:17:21;;;;;;;5.33;1.43;;;;;;;;;;5028723;28;20501;-71
2022/07/16 13:19:46;;;;;;;5.40;1.10;;;;;;;;;;5028646;28;20284;-72
2022/07/16 13:22:11;;;;;;;5.33;1.40;;;;;;;;;;5029505;28;20096;-72
2022/07/16 13:24:37;;;;;;;2.90;0.77;;;;;;;;;;5033748;28;20359;-71
2022/07/16 13:27:02;;;;;;;4.07;1.10;;;;;;;;;;5032870;28;20033;-71
2022/07/16 13:29:27;;;;;;;2.97;1.27;;;;;;;;;;5029563;28;20030;-71
2022/07/16 13:31:52;;;;;;;8.70;1.33;;;;;;;;;;5032795;28;20033;-71
2022/07/16 13:34:18;;;;;;;10.13;1.00;;;;;;;;;;5029698;28;20029;-71
2022/07/16 13:36:43;;;;;;;7.13;1.10;;;;;;;;;;5031688;28;20276;-71
2022/07/16 13:39:08;;;;;;;2.33;0.93;;;;;;;;;;5033373;28;20067;-72
2022/07/16 13:41:34;;;;;;;6.10;1.03;;;;;;;;;;5032943;28;20104;-71
2022/07/16 13:43:59;;;;;;;2.37;1.13;;;;;;;;;;5033428;28;20014;-70
2022/07/16 13:46:24;;;;;;;2.60;0.98;;;;;;;;;;5032568;28;20382;-71
2022/07/16 13:48:49;;;;;;;6.03;0.90;;;;;;;;;;5030861;28;20018;-74
2022/07/16 13:51:15;;;;;;;4.43;0.95;;;;;;;;;;5032749;28;20155;-71
2022/07/16 13:53:40;;;;;;;11.13;1.15;;;;;;;;;;5033682;28;20025;-72
2022/07/16 13:56:05;;;;;;;4.07;0.95;;;;;;;;;;5029786;28;20068;-71
2022/07/16 13:58:30;;;;;;;4.60;0.95;;;;;;;;;;5033013;28;20036;-71
2022/07/16 14:00:58;;;;;;;7.83;1.07;;;;;;;;;;5030953;28;20370;-71
2022/07/16 14:03:25;;;;;;;2.80;0.82;;;;;;;;;;5030312;28;20466;-71
2022/07/16 14:05:50;;;;;;;1.95;0.95;;;;;;;;;;5031744;28;20060;-71
2022/07/16 14:08:15;;;;;;;5.95;0.90;;;;;;;;;;5032657;28;20053;-71
2022/07/16 14:10:41;;;;;;;5.25;1.02;;;;;;;;;;5032370;28;20461;-71
2022/07/16 14:13:06;;;;;;;6.88;1.13;;;;;;;;;;5031788;28;20021;-71
2022/07/16 14:15:33;;;;;;;2.78;0.80;;;;;;;;;;5033110;28;20017;-72
2022/07/16 14:18:03;;;;;;;6.63;0.70;;;;;;;;;;5030596;28;20025;-71
2022/07/16 14:20:29;;;;;;;4.43;0.73;;;;;;;;;;5033040;28;20355;-71
2022/07/16 14:22:54;;;;;;;4.55;0.80;;;;;;;;;;5032074;28;20043;-71
2022/07/16 14:25:19;;;;;;;4.60;0.80;;;;;;;;;;5031184;28;20104;-71
2022/07/16 14:27:45;;;;;;;7.22;1.00;;;;;;;;;;5031698;28;20024;-71
2022/07/16 14:30:11;;;;;;;5.03;0.82;;;;;;;;;;5027867;28;20033;-71
2022/07/16 14:32:37;;;;;;;2.85;1.17;;;;;;;;;;5026497;28;20030;-72
2022/07/16 14:35:03;;;;;;;6.35;1.27;;;;;;;;;;5030830;28;20366;-70
2022/07/16 14:37:28;;;;;;;9.82;1.20;;;;;;;;;;5031598;28;20030;-71
2022/07/16 14:39:53;;;;;;;3.55;1.20;;;;;;;;;;5028485;28;20021;-74
2022/07/16 14:42:19;;;;;;;4.73;0.90;;;;;;;;;;5029403;28;20555;-72
2022/07/16 14:44:45;;;;;;;4.22;0.95;;;;;;;;;;5015242;28;20268;-72